createdAt,value
2018-11-29T00:00:49.713Z,91.46
2018-11-29T00:03:18.515Z,90.61
2018-11-29T00:05:46.578Z,91.17
2018-11-29T00:08:14.658Z,91.82
2018-11-29T00:10:42.911Z,92.11
2018-11-29T00:13:10.945Z,91.78
2018-11-29T00:15:39.024Z,91.66
2018-11-29T00:18:07.110Z,91.74
2018-11-29T00:20:35.233Z,91.92
2018-11-29T00:23:03.394Z,91.57
2018-11-29T00:25:31.543Z,91.80
2018-11-29T00:27:59.634Z,91.75
2018-11-29T00:30:27.775Z,91.70
2018-11-29T00:32:56.087Z,92.30
2018-11-29T00:35:24.174Z,92.18
2018-11-29T00:37:53.189Z,91.49
2018-11-29T00:40:22.833Z,92.39
2018-11-29T00:42:50.999Z,91.91
2018-11-29T00:45:19.957Z,91.53
2018-11-29T00:47:48.483Z,91.82
2018-11-29T00:50:17.250Z,91.73
2018-11-29T00:52:46.280Z,91.92
2018-11-29T00:55:18.290Z,92.14
2018-11-29T00:57:46.427Z,91.27
2018-11-29T01:00:18.495Z,91.16
2018-11-29T01:02:46.635Z,91.18
2018-11-29T01:05:14.785Z,91.14
2018-11-29T01:07:42.875Z,91.34
2018-11-29T01:10:12.004Z,91.18
2018-11-29T01:12:40.219Z,91.21
2018-11-29T01:15:09.790Z,91.36
2018-11-29T01:17:37.870Z,91.43
2018-11-29T01:20:07.882Z,90.76
2018-11-29T01:22:36.047Z,90.90
2018-11-29T01:25:04.198Z,90.45
2018-11-29T01:27:32.292Z,90.27
2018-11-29T01:30:00.510Z,90.88
2018-11-29T01:32:28.586Z,90.69
2018-11-29T01:34:56.665Z,90.71
2018-11-29T01:37:24.722Z,90.66
2018-11-29T01:39:52.812Z,91.15
2018-11-29T01:42:20.862Z,91.43
2018-11-29T01:44:48.927Z,92.26
2018-11-29T01:47:16.994Z,91.51
2018-11-29T01:49:45.169Z,92.42
2018-11-29T01:52:13.266Z,91.89
2018-11-29T01:54:41.361Z,92.52
2018-11-29T01:57:09.459Z,92.43
2018-11-29T01:59:37.557Z,91.90
2018-11-29T02:02:05.916Z,91.75
2018-11-29T02:04:33.991Z,91.09
2018-11-29T02:07:02.801Z,91.07
2018-11-29T02:09:30.882Z,90.00
2018-11-29T02:11:58.947Z,90.12
2018-11-29T02:14:27.016Z,89.52
2018-11-29T02:16:55.110Z,90.00
2018-11-29T02:19:23.172Z,89.79
2018-11-29T02:21:51.267Z,89.34
2018-11-29T02:24:19.361Z,89.33
2018-11-29T02:26:47.437Z,89.50
2018-11-29T02:29:15.526Z,89.43
2018-11-29T02:31:43.606Z,88.77
2018-11-29T02:34:11.683Z,88.73
2018-11-29T02:36:39.867Z,88.84
2018-11-29T02:39:08.594Z,89.13
2018-11-29T02:41:36.698Z,89.20
2018-11-29T02:44:04.897Z,89.27
2018-11-29T02:46:33.013Z,88.93
2018-11-29T02:49:01.094Z,88.92
2018-11-29T02:51:29.201Z,89.38
2018-11-29T02:53:57.285Z,89.84
2018-11-29T02:56:25.365Z,90.26
2018-11-29T02:58:53.445Z,90.04
2018-11-29T03:01:21.509Z,90.15
2018-11-29T03:03:49.638Z,89.68
2018-11-29T03:06:17.778Z,88.83
2018-11-29T03:08:45.850Z,89.20
2018-11-29T03:11:13.918Z,89.56
2018-11-29T03:13:41.999Z,90.00
2018-11-29T03:16:10.067Z,89.96
2018-11-29T03:18:38.183Z,89.81
2018-11-29T03:21:06.454Z,89.97
2018-11-29T03:23:34.562Z,90.91
2018-11-29T03:26:02.653Z,91.26
2018-11-29T03:28:30.741Z,91.09
2018-11-29T03:30:59.411Z,90.93
2018-11-29T03:33:27.498Z,91.46
2018-11-29T03:35:55.582Z,92.07
2018-11-29T03:38:23.654Z,92.71
2018-11-29T03:40:51.777Z,92.74
2018-11-29T03:43:19.850Z,92.83
2018-11-29T03:45:47.893Z,93.17
2018-11-29T03:48:15.954Z,93.03
2018-11-29T03:50:44.058Z,92.84
2018-11-29T03:53:12.209Z,91.95
2018-11-29T03:55:40.361Z,90.80
2018-11-29T03:58:08.470Z,90.51
2018-11-29T04:00:36.560Z,88.89
2018-11-29T04:03:04.820Z,88.92
2018-11-29T04:05:32.885Z,88.91
2018-11-29T04:08:00.971Z,89.16
2018-11-29T04:10:29.045Z,89.07
2018-11-29T04:12:57.113Z,88.79
2018-11-29T04:15:25.217Z,89.14
2018-11-29T04:17:53.308Z,89.62
2018-11-29T04:20:21.412Z,89.10
2018-11-29T04:22:49.552Z,89.15
2018-11-29T04:25:17.657Z,88.95
2018-11-29T04:27:45.736Z,88.52
2018-11-29T04:30:15.632Z,88.52
2018-11-29T04:32:43.861Z,88.46
2018-11-29T04:35:12.516Z,88.22
2018-11-29T04:37:40.585Z,88.35
2018-11-29T04:40:15.406Z,87.67
2018-11-29T04:42:43.670Z,87.84
2018-11-29T04:45:16.779Z,88.24
2018-11-29T04:47:44.942Z,87.74
2018-11-29T04:50:13.092Z,88.02
2018-11-29T04:52:41.161Z,87.71
2018-11-29T04:55:09.860Z,87.81
2018-11-29T04:57:38.082Z,87.36
2018-11-29T05:00:12.350Z,87.34
2018-11-29T05:02:40.577Z,87.59
2018-11-29T05:05:08.905Z,86.86
2018-11-29T05:07:37.274Z,86.65
2018-11-29T05:10:06.598Z,86.62
2018-11-29T05:12:34.690Z,86.95
2018-11-29T05:15:02.757Z,87.43
2018-11-29T05:17:30.862Z,87.24
2018-11-29T05:19:58.980Z,87.69
2018-11-29T05:22:27.068Z,87.66
2018-11-29T05:24:55.154Z,87.89
2018-11-29T05:27:23.254Z,88.57
2018-11-29T05:29:51.376Z,88.34
2018-11-29T05:32:19.473Z,88.06
2018-11-29T05:34:47.572Z,87.52
2018-11-29T05:37:15.750Z,87.23
2018-11-29T05:39:43.858Z,87.11
2018-11-29T05:42:11.965Z,87.28
2018-11-29T05:44:40.058Z,87.05
2018-11-29T05:47:08.157Z,87.13
2018-11-29T05:49:36.278Z,87.50
2018-11-29T05:52:04.385Z,87.74
2018-11-29T05:54:32.467Z,87.48
2018-11-29T05:57:00.549Z,87.59
2018-11-29T05:59:28.640Z,87.78
2018-11-29T06:01:56.715Z,87.58
2018-11-29T06:04:24.811Z,87.91
2018-11-29T06:06:52.906Z,87.81
2018-11-29T06:09:21.581Z,87.72
2018-11-29T06:11:49.695Z,87.72
2018-11-29T06:14:17.789Z,88.14
2018-11-29T06:16:45.865Z,88.62
2018-11-29T06:19:13.949Z,88.25
2018-11-29T06:21:42.026Z,87.79
2018-11-29T06:24:13.592Z,87.26
2018-11-29T06:26:38.214Z,88.23
2018-11-29T06:29:06.416Z,87.90
2018-11-29T06:31:34.726Z,87.97
2018-11-29T06:34:02.836Z,88.29
2018-11-29T06:36:31.200Z,88.27
2018-11-29T06:38:59.884Z,88.17
2018-11-29T06:41:27.978Z,87.39
2018-11-29T06:43:56.063Z,87.82
2018-11-29T06:46:24.124Z,87.89
2018-11-29T06:48:52.210Z,88.31
2018-11-29T06:51:20.315Z,88.37
2018-11-29T06:53:53.983Z,87.49
2018-11-29T06:56:22.569Z,87.25
2018-11-29T06:58:50.643Z,87.38
2018-11-29T07:01:18.719Z,87.85
2018-11-29T07:03:46.788Z,87.81
2018-11-29T07:06:14.883Z,88.04
2018-11-29T07:08:42.994Z,87.54
2018-11-29T07:11:11.091Z,87.81
2018-11-29T07:13:39.183Z,88.14
2018-11-29T07:16:07.329Z,88.44
2018-11-29T07:18:35.432Z,88.25
2018-11-29T07:21:14.849Z,88.58
2018-11-29T07:23:42.913Z,87.41
2018-11-29T07:26:11.020Z,87.11
2018-11-29T07:28:39.106Z,87.36
2018-11-29T07:31:07.244Z,86.58
2018-11-29T07:33:35.312Z,86.25
2018-11-29T07:36:03.409Z,87.04
2018-11-29T07:38:31.506Z,87.09
2018-11-29T07:40:59.597Z,86.91
2018-11-29T07:43:27.675Z,87.24
2018-11-29T07:45:55.774Z,87.15
2018-11-29T07:48:24.556Z,87.09
2018-11-29T07:50:52.753Z,86.33
2018-11-29T07:53:20.866Z,86.05
2018-11-29T07:55:48.935Z,86.61
2018-11-29T07:58:17.023Z,86.65
2018-11-29T08:00:45.077Z,86.21
2018-11-29T08:03:13.295Z,86.18
2018-11-29T08:05:41.379Z,85.75
2018-11-29T08:08:09.478Z,86.00
2018-11-29T08:10:37.533Z,84.95
2018-11-29T08:13:07.111Z,85.64
2018-11-29T08:15:35.187Z,86.13
2018-11-29T08:18:03.397Z,85.62
2018-11-29T08:20:31.473Z,84.97
2018-11-29T08:22:59.575Z,85.39
2018-11-29T08:25:27.665Z,85.78
2018-11-29T08:27:56.187Z,85.20
2018-11-29T08:30:24.289Z,84.69
2018-11-29T08:32:52.342Z,84.48
2018-11-29T08:35:20.417Z,84.28
2018-11-29T08:37:48.710Z,84.92
2018-11-29T08:40:20.082Z,85.12
2018-11-29T08:42:48.138Z,85.00
2018-11-29T08:45:16.329Z,85.00
2018-11-29T08:47:44.438Z,84.71
2018-11-29T08:50:13.320Z,84.89
2018-11-29T08:52:42.256Z,84.41
2018-11-29T08:55:11.635Z,84.61
2018-11-29T08:57:39.787Z,84.86
2018-11-29T09:00:10.406Z,84.84
2018-11-29T09:02:38.514Z,85.01
2018-11-29T09:05:07.433Z,84.81
2018-11-29T09:07:35.615Z,85.16
2018-11-29T09:10:04.803Z,85.02
2018-11-29T09:12:33.398Z,85.51
2018-11-29T09:15:01.630Z,86.04
2018-11-29T09:17:30.109Z,85.74
2018-11-29T09:19:58.254Z,85.29
2018-11-29T09:22:26.402Z,84.67
2018-11-29T09:24:54.573Z,83.97
2018-11-29T09:27:22.707Z,84.30
2018-11-29T09:29:50.910Z,83.89
2018-11-29T09:32:19.069Z,83.81
2018-11-29T09:34:47.174Z,84.08
2018-11-29T09:37:15.322Z,84.25
2018-11-29T09:39:43.382Z,83.51
2018-11-29T09:42:11.478Z,83.38
2018-11-29T09:44:39.540Z,82.56
2018-11-29T09:47:07.697Z,83.95
2018-11-29T09:49:35.974Z,83.38
2018-11-29T09:52:04.097Z,81.95
2018-11-29T09:54:32.181Z,82.14
2018-11-29T09:57:00.288Z,82.43
2018-11-29T09:59:28.449Z,82.38
2018-11-29T10:01:56.557Z,81.99
2018-11-29T10:04:24.646Z,80.85
2018-11-29T10:06:52.727Z,81.70
2018-11-29T10:09:20.799Z,81.74
2018-11-29T10:11:48.908Z,82.01
2018-11-29T10:14:16.987Z,81.39
2018-11-29T10:16:45.089Z,80.05
2018-11-29T10:19:13.189Z,79.03
2018-11-29T10:21:41.286Z,79.33
2018-11-29T10:24:09.388Z,80.04
2018-11-29T10:26:37.453Z,79.72
2018-11-29T10:29:05.879Z,78.72
2018-11-29T10:31:33.963Z,79.41
2018-11-29T10:34:02.049Z,80.47
2018-11-29T10:36:30.169Z,79.09
2018-11-29T10:38:58.253Z,79.79
2018-11-29T10:41:26.342Z,78.47
2018-11-29T10:43:54.430Z,79.00
2018-11-29T10:46:22.510Z,78.77
2018-11-29T10:48:50.719Z,79.25
2018-11-29T10:51:18.802Z,80.04
2018-11-29T10:53:46.889Z,78.67
2018-11-29T10:56:14.986Z,78.43
2018-11-29T10:58:43.059Z,77.78
2018-11-29T11:01:16.589Z,77.31
2018-11-29T11:03:44.668Z,77.69
2018-11-29T11:06:12.750Z,77.68
2018-11-29T11:08:40.856Z,77.87
2018-11-29T11:11:08.952Z,76.64
2018-11-29T11:13:37.820Z,76.31
2018-11-29T11:16:06.435Z,76.95
2018-11-29T11:18:34.701Z,76.36
2018-11-29T11:21:02.817Z,75.61
2018-11-29T11:23:30.917Z,77.27
2018-11-29T11:25:59.034Z,77.71
2018-11-29T11:28:27.137Z,76.59
2018-11-29T11:30:55.198Z,76.11
2018-11-29T11:33:23.293Z,76.83
2018-11-29T11:35:51.373Z,76.61
2018-11-29T11:38:19.517Z,76.93
2018-11-29T11:40:47.577Z,76.03
2018-11-29T11:43:15.661Z,75.89
2018-11-29T11:45:43.738Z,76.65
2018-11-29T11:48:11.903Z,77.00
2018-11-29T11:50:39.991Z,76.00
2018-11-29T11:53:08.746Z,75.95
2018-11-29T11:55:37.214Z,76.80
2018-11-29T11:58:05.689Z,75.96
2018-11-29T12:00:33.759Z,75.51
2018-11-29T12:03:04.729Z,75.25
2018-11-29T12:05:32.786Z,75.97
2018-11-29T12:08:00.878Z,75.79
2018-11-29T12:10:28.964Z,76.02
2018-11-29T12:12:57.044Z,75.65
2018-11-29T12:15:25.182Z,76.02
2018-11-29T12:17:53.258Z,75.64
2018-11-29T12:20:21.371Z,75.90
2018-11-29T12:22:49.457Z,75.27
2018-11-29T12:25:19.495Z,75.63
2018-11-29T12:27:47.644Z,76.86
2018-11-29T12:30:22.923Z,77.29
2018-11-29T12:32:51.687Z,76.58
2018-11-29T12:35:19.794Z,76.87
2018-11-29T12:37:47.905Z,75.58
2018-11-29T12:40:16.508Z,75.42
2018-11-29T12:42:44.577Z,75.54
2018-11-29T12:45:13.533Z,76.01
2018-11-29T12:47:41.793Z,76.06
2018-11-29T12:50:16.373Z,75.82
2018-11-29T12:52:44.539Z,76.86
2018-11-29T12:55:13.585Z,78.18
2018-11-29T12:57:42.276Z,76.80
2018-11-29T13:00:14.767Z,76.06
2018-11-29T13:02:49.731Z,75.59
2018-11-29T13:05:17.809Z,76.40
2018-11-29T13:07:46.305Z,76.91
2018-11-29T13:10:16.263Z,76.62
2018-11-29T13:12:44.378Z,76.15
2018-11-29T13:15:16.849Z,76.53
2018-11-29T13:17:44.892Z,76.19
2018-11-29T13:20:14.110Z,76.42
2018-11-29T13:22:42.179Z,76.44
2018-11-29T13:25:13.622Z,76.12
2018-11-29T13:27:41.744Z,76.56
2018-11-29T13:30:13.979Z,76.61
2018-11-29T13:32:42.204Z,78.52
2018-11-29T13:35:17.963Z,78.36
2018-11-29T13:37:55.146Z,79.09
2018-11-29T13:40:23.287Z,79.12
2018-11-29T13:42:51.353Z,78.47
2018-11-29T13:45:19.441Z,77.00
2018-11-29T13:47:47.518Z,77.78
2018-11-29T13:50:16.336Z,77.60
2018-11-29T13:52:44.468Z,78.01
2018-11-29T13:55:14.233Z,77.79
2018-11-29T13:57:43.481Z,77.59
2018-11-29T14:00:13.793Z,77.23
2018-11-29T14:02:41.884Z,80.26
2018-11-29T14:05:10.565Z,80.08
2018-11-29T14:07:38.762Z,78.83
2018-11-29T14:10:12.691Z,78.41
2018-11-29T14:12:40.762Z,77.83
2018-11-29T14:15:16.551Z,77.55
2018-11-29T14:17:44.627Z,77.78
2018-11-29T14:20:13.321Z,77.22
2018-11-29T14:22:41.423Z,77.40
2018-11-29T14:25:10.594Z,77.25
2018-11-29T14:27:38.715Z,76.89
2018-11-29T14:30:11.437Z,76.92
2018-11-29T14:32:39.563Z,76.98
2018-11-29T14:35:08.007Z,77.84
2018-11-29T14:37:36.137Z,77.63
2018-11-29T14:40:06.835Z,79.58
2018-11-29T14:42:34.928Z,82.73
2018-11-29T14:45:03.010Z,80.77
2018-11-29T14:47:31.135Z,78.96
2018-11-29T14:49:59.285Z,78.90
2018-11-29T14:52:27.359Z,78.19
2018-11-29T14:54:55.417Z,79.08
2018-11-29T14:57:23.507Z,79.80
2018-11-29T14:59:51.583Z,79.23
2018-11-29T15:02:19.661Z,80.39
2018-11-29T15:04:47.752Z,81.37
2018-11-29T15:07:15.868Z,79.89
2018-11-29T15:09:43.950Z,79.40
2018-11-29T15:12:13.038Z,79.23
2018-11-29T15:14:41.270Z,78.13
2018-11-29T15:17:09.349Z,78.72
2018-11-29T15:19:37.423Z,80.41
2018-11-29T15:22:05.774Z,79.31
2018-11-29T15:24:33.852Z,79.14
2018-11-29T15:27:01.940Z,78.86
2018-11-29T15:29:30.026Z,78.04
2018-11-29T15:31:58.132Z,78.33
2018-11-29T15:34:26.204Z,77.99
2018-11-29T15:36:54.293Z,77.36
2018-11-29T15:39:22.370Z,77.69
2018-11-29T15:41:50.458Z,77.26
2018-11-29T15:44:18.561Z,77.42
2018-11-29T15:46:46.631Z,78.19
2018-11-29T15:49:14.717Z,78.38
2018-11-29T15:51:42.798Z,78.44
2018-11-29T15:54:10.877Z,77.86
2018-11-29T15:56:38.973Z,77.00
2018-11-29T15:59:07.035Z,77.15
2018-11-29T16:01:35.126Z,77.46
2018-11-29T16:04:03.213Z,78.83
2018-11-29T16:06:31.317Z,78.04
2018-11-29T16:08:59.414Z,77.27
2018-11-29T16:11:27.506Z,76.93
2018-11-29T16:13:55.609Z,76.69
2018-11-29T16:16:23.679Z,77.04
2018-11-29T16:18:51.812Z,76.23
2018-11-29T16:21:19.860Z,76.03
2018-11-29T16:23:48.123Z,75.95
2018-11-29T16:26:16.203Z,77.21
2018-11-29T16:28:44.282Z,76.50
2018-11-29T16:31:12.345Z,75.60
2018-11-29T16:33:40.477Z,75.56
2018-11-29T16:36:09.042Z,75.96
2018-11-29T16:38:37.136Z,75.16
2018-11-29T16:41:05.286Z,75.34
2018-11-29T16:43:33.381Z,75.03
2018-11-29T16:46:01.479Z,75.21
2018-11-29T16:48:29.569Z,75.89
2018-11-29T16:50:57.630Z,75.19
2018-11-29T16:53:25.719Z,75.06
2018-11-29T16:55:53.781Z,75.31
2018-11-29T16:58:23.631Z,75.10
2018-11-29T17:00:51.704Z,74.80
2018-11-29T17:03:19.773Z,74.55
2018-11-29T17:05:47.856Z,74.79
2018-11-29T17:08:15.954Z,74.64
2018-11-29T17:10:44.021Z,74.72
2018-11-29T17:13:14.598Z,74.34
2018-11-29T17:15:42.679Z,74.65
2018-11-29T17:18:10.789Z,75.84
2018-11-29T17:20:38.902Z,75.69
2018-11-29T17:23:08.423Z,77.08
2018-11-29T17:25:36.498Z,77.05
2018-11-29T17:28:04.602Z,77.07
2018-11-29T17:30:32.699Z,75.97
2018-11-29T17:33:00.781Z,77.82
2018-11-29T17:35:28.862Z,78.28
2018-11-29T17:37:59.824Z,77.45
2018-11-29T17:40:27.910Z,77.82
2018-11-29T17:42:56.837Z,76.99
2018-11-29T17:45:27.042Z,77.19
2018-11-29T17:48:00.437Z,76.78
2018-11-29T17:50:30.077Z,77.11
2018-11-29T17:52:58.153Z,77.73
2018-11-29T17:55:26.241Z,78.24
2018-11-29T17:57:54.438Z,77.96
2018-11-29T18:00:25.546Z,79.17
2018-11-29T18:02:53.617Z,81.83
2018-11-29T18:05:21.708Z,83.60
2018-11-29T18:07:50.029Z,83.18
2018-11-29T18:10:26.074Z,83.22
2018-11-29T18:13:04.476Z,82.80
2018-11-29T18:15:37.522Z,83.35
2018-11-29T18:18:07.795Z,84.32
2018-11-29T18:20:36.438Z,84.87
2018-11-29T18:23:04.835Z,84.38
2018-11-29T18:25:34.541Z,84.06
2018-11-29T18:28:06.828Z,84.11
2018-11-29T18:30:39.309Z,83.68
2018-11-29T18:33:09.233Z,84.52
2018-11-29T18:35:38.014Z,84.63
2018-11-29T18:38:11.716Z,84.72
2018-11-29T18:40:43.592Z,84.81
2018-11-29T18:43:12.937Z,86.61
2018-11-29T18:45:42.328Z,87.04
2018-11-29T18:48:16.078Z,86.78
2018-11-29T18:50:47.001Z,85.99
2018-11-29T18:53:15.522Z,85.87
2018-11-29T18:55:45.079Z,85.82
2018-11-29T18:58:20.468Z,87.40
2018-11-29T19:00:50.711Z,88.12
2018-11-29T19:03:21.617Z,88.51
2018-11-29T19:05:53.179Z,88.31
2018-11-29T19:08:23.680Z,88.37
2018-11-29T19:10:58.943Z,88.69
2018-11-29T19:13:31.652Z,89.28
2018-11-29T19:16:01.098Z,88.55
2018-11-29T19:18:29.977Z,88.31
2018-11-29T19:20:59.700Z,88.37
2018-11-29T19:23:28.919Z,89.35
2018-11-29T19:28:37.122Z,90.99
2018-11-29T19:31:05.816Z,91.18
2018-11-29T19:33:37.770Z,91.21
2018-11-29T19:36:09.837Z,90.52
2018-11-29T19:38:42.031Z,89.73
2018-11-29T19:41:10.561Z,89.40
2018-11-29T19:43:39.167Z,89.38
2018-11-29T19:46:09.287Z,89.85
2018-11-29T19:48:38.671Z,90.57
2018-11-29T19:51:08.486Z,90.76
2018-11-29T19:53:38.217Z,91.21
2018-11-29T19:56:08.382Z,90.46
2018-11-29T19:58:38.272Z,89.77
2018-11-29T20:01:07.493Z,89.66
2018-11-29T20:03:41.666Z,89.03
2018-11-29T20:06:10.719Z,89.20
2018-11-29T20:08:44.746Z,89.90
2018-11-29T20:11:13.103Z,89.76
2018-11-29T20:13:44.329Z,90.21
2018-11-29T20:16:13.999Z,91.01
2018-11-29T20:18:43.995Z,91.29
2018-11-29T20:21:14.146Z,91.56
2018-11-29T20:23:46.135Z,91.99
2018-11-29T20:26:16.847Z,92.37
2018-11-29T20:28:45.849Z,92.70
2018-11-29T20:31:16.185Z,92.81
2018-11-29T20:33:47.787Z,92.36
2018-11-29T20:36:23.965Z,92.83
2018-11-29T20:38:53.963Z,92.64
2018-11-29T20:41:23.160Z,92.38
2018-11-29T20:43:53.387Z,92.11
2018-11-29T20:46:25.558Z,91.92
2018-11-29T20:48:55.580Z,92.48
2018-11-29T20:51:24.099Z,93.55
2018-11-29T20:53:52.438Z,94.29
2018-11-29T20:56:20.851Z,94.58
2018-11-29T20:58:51.895Z,94.21
2018-11-29T21:01:21.607Z,93.38
2018-11-29T21:03:50.257Z,93.30
2018-11-29T21:06:23.122Z,93.81
2018-11-29T21:08:52.924Z,94.90
2018-11-29T21:11:27.670Z,94.66
2018-11-29T21:14:01.310Z,95.40
2018-11-29T21:16:34.099Z,95.95
2018-11-29T21:19:03.612Z,95.83
2018-11-29T21:21:35.794Z,95.83
2018-11-29T21:24:09.131Z,95.97
2018-11-29T21:26:40.169Z,95.98
2018-11-29T21:29:09.991Z,95.94
2018-11-29T21:31:42.042Z,95.26
2018-11-29T21:34:12.822Z,95.02
2018-11-29T21:36:49.245Z,94.36
2018-11-29T21:39:22.516Z,94.21
2018-11-29T21:41:55.379Z,94.57
2018-11-29T21:44:25.207Z,94.43
2018-11-29T21:46:56.751Z,95.21
2018-11-29T21:52:07.401Z,95.38
2018-11-29T21:54:36.101Z,95.45
2018-11-29T21:57:04.722Z,96.00
2018-11-29T21:59:35.575Z,95.13
2018-11-29T22:02:05.675Z,95.13
2018-11-29T22:04:38.536Z,94.76
2018-11-29T22:07:07.396Z,95.13
2018-11-29T22:09:35.877Z,95.30
2018-11-29T22:12:10.574Z,95.51
2018-11-29T22:14:40.493Z,95.91
2018-11-29T22:17:20.403Z,96.41
2018-11-29T22:19:52.186Z,96.37
2018-11-29T22:22:21.626Z,96.69
2018-11-29T22:24:51.392Z,95.37
2018-11-29T22:27:22.174Z,95.87
2018-11-29T22:29:51.247Z,96.28
2018-11-29T22:32:21.612Z,96.23
2018-11-29T22:34:52.977Z,95.97
2018-11-29T22:37:26.240Z,95.95
2018-11-29T22:39:56.487Z,96.15
2018-11-29T22:42:50.775Z,96.02
2018-11-29T22:45:20.565Z,96.39
2018-11-29T22:47:49.890Z,96.71
2018-11-29T22:50:22.911Z,96.02
2018-11-29T23:22:24.492Z,96.31
2018-11-29T23:25:14.018Z,96.06
2018-11-29T23:27:44.643Z,96.12
2018-11-29T23:30:17.764Z,96.14
2018-11-29T23:32:49.207Z,96.64
2018-11-29T23:35:19.923Z,96.65
2018-11-29T23:37:51.137Z,96.68
2018-11-29T23:40:20.838Z,96.94
2018-11-29T23:42:51.240Z,96.96
2018-11-29T23:45:20.165Z,96.79
2018-11-29T23:47:49.723Z,96.55
2018-11-29T23:50:18.701Z,96.66
2018-11-29T23:52:49.795Z,95.27
2018-11-29T23:55:21.941Z,95.31
2018-11-29T23:57:53.429Z,95.53
